Time;durP1;ratioP1;P1;durP2;ratioP2;P2;SDS_P1;SDS_P2;PMS_P1;PMS_P2;Temp;Humidity;BMP_temperature;BMP_pressure;BME280_temperature;BME280_humidity;BME280_pressure;Samples;Min_cycle;Max_cycle;Signal;HPM_P1;HPM_P2
2022/02/17 00:00:13;;;;;;;354.70;47.20;;;205.00;2252.80;;;;;;5112564;28;20001;-79
2022/02/17 00:02:45;;;;;;;191.52;40.40;;;205.10;2252.80;;;;;;5113733;28;20028;-80
2022/02/17 00:05:11;;;;;;;220.27;39.50;;;205.00;2252.80;;;;;;5112897;28;20173;-80
2022/02/17 00:07:37;;;;;;;431.63;57.63;;;179.90;2252.80;;;;;;5112418;28;20035;-77
2022/02/17 00:10:05;;;;;;;287.40;47.85;;;179.50;2252.80;;;;;;5113891;28;20031;-80
2022/02/17 00:12:31;;;;;;;253.43;42.90;;;179.30;2252.80;;;;;;5113542;28;20032;-79
2022/02/17 00:14:57;;;;;;;;;;;179.20;2252.80;;;;;;5114188;28;20046;-80
2022/02/17 00:17:23;;;;;;;157.30;35.43;;;154.40;2252.80;;;;;;5112235;28;19913;-80
2022/02/17 00:19:49;;;;;;;155.80;33.95;;;154.50;2252.80;;;;;;5113527;28;20023;-80
2022/02/17 00:22:15;;;;;;;;;;;179.20;2252.80;;;;;;5113001;28;20027;-81
2022/02/17 00:24:41;;;;;;;100.88;33.10;;;154.40;2252.80;;;;;;5112551;28;20360;-80
2022/02/17 00:27:07;;;;;;;146.02;33.40;;;179.50;2252.80;;;;;;5112109;28;20059;-80
2022/02/17 00:29:32;;;;;;;;;;;179.30;2252.80;;;;;;5112892;28;20051;-80
2022/02/17 00:31:59;;;;;;;59.65;29.67;;;179.60;2252.80;;;;;;5112046;28;20379;-80
2022/02/17 00:34:24;;;;;;;;;;;179.70;2252.80;;;;;;5113248;28;20019;-79
2022/02/17 00:36:50;;;;;;;65.43;28.45;;;179.70;2252.80;;;;;;5112956;28;19919;-81
2022/02/17 00:39:16;;;;;;;;;;;179.70;2252.80;;;;;;5112025;28;20015;-80
2022/02/17 00:41:42;;;;;;;80.25;28.92;;;179.70;2252.80;;;;;;5112177;28;20376;-80
2022/02/17 00:44:07;;;;;;;;;;;179.40;2252.80;;;;;;5112426;28;20016;-80
2022/02/17 00:46:33;;;;;;;77.82;31.02;;;179.30;2252.80;;;;;;5112051;28;19914;-81
2022/02/17 00:48:59;;;;;;;;;;;154.30;2252.80;;;;;;5113447;28;20555;-80
2022/02/17 00:51:25;;;;;;;133.57;42.17;;;154.10;2252.80;;;;;;5111764;28;20378;-76
2022/02/17 00:53:51;;;;;;;116.30;39.65;;;153.80;2252.80;;;;;;5111305;28;20122;-80
2022/02/17 00:56:17;;;;;;;;;;;153.90;2252.80;;;;;;5113177;28;20102;-83
2022/02/17 00:58:43;;;;;;;111.13;36.75;;;153.80;2252.80;;;;;;5112888;28;19917;-80
2022/02/17 01:01:08;;;;;;;;;;;153.80;2252.80;;;;;;5113193;28;20020;-81
2022/02/17 01:03:34;;;;;;;102.63;35.88;;;153.70;2252.80;;;;;;5112802;28;19911;-81
2022/02/17 01:06:00;;;;;;;;;;;153.80;2252.80;;;;;;5112182;28;20423;-83
2022/02/17 01:08:26;;;;;;;106.63;38.55;;;153.80;2252.80;;;;;;5111634;28;20386;-83
2022/02/17 01:10:51;;;;;;;;;;;153.80;2252.80;;;;;;5111950;28;20024;-84
2022/02/17 01:13:17;;;;;;;142.43;40.17;;;153.80;2252.80;;;;;;5112059;28;19958;-83
2022/02/17 01:15:43;;;;;;;;;;;153.60;2252.80;;;;;;5111617;28;20032;-83
2022/02/17 01:18:09;;;;;;;142.55;37.95;;;153.70;2252.80;;;;;;5111880;28;19946;-82
2022/02/17 01:20:34;;;;;;;;;;;153.70;2252.80;;;;;;5112108;28;20039;-78
2022/02/17 01:23:00;;;;;;;116.47;39.83;;;153.70;2252.80;;;;;;5111539;28;19942;-80
2022/02/17 01:25:26;;;;;;;;;;;153.80;2252.80;;;;;;5111988;28;20099;-81
2022/02/17 01:27:53;;;;;;;135.85;38.35;;;153.80;2252.80;;;;;;5111253;28;19907;-79
2022/02/17 01:30:19;;;;;;;63.80;33.22;;;153.70;2252.80;;;;;;5111601;28;20457;-81
2022/02/17 01:32:45;;;;;;;;;;;154.00;2252.80;;;;;;5111971;28;20024;-81
2022/02/17 01:35:11;;;;;;;103.55;35.30;;;154.00;2252.80;;;;;;5111236;28;20049;-80
2022/02/17 01:37:36;;;;;;;;;;;154.00;2252.80;;;;;;5113104;28;20023;-80
2022/02/17 01:40:03;;;;;;;64.22;30.85;;;154.40;2252.80;;;;;;5115440;28;19910;-82
2022/02/17 01:42:29;;;;;;;90.50;31.08;;;154.50;2252.80;;;;;;5114780;28;20018;-81
2022/02/17 01:44:54;;;;;;;;;;;154.30;2252.80;;;;;;5115664;27;20023;-82
2022/02/17 01:47:20;;;;;;;102.78;30.55;;;153.90;2252.80;;;;;;5115090;28;20353;-82
2022/02/17 01:49:47;;;;;;;82.50;29.90;;;154.00;2252.80;;;;;;5114849;28;20055;-81
2022/02/17 01:52:14;;;;;;;119.28;32.38;;;153.90;2252.80;;;;;;5115128;28;20023;-80
2022/02/17 01:54:43;;;;;;;191.48;35.97;;;153.70;2252.80;;;;;;5115802;28;20098;-81
2022/02/17 01:57:11;;;;;;;146.50;34.50;;;128.90;2252.80;;;;;;5114714;28;20031;-79
2022/02/17 01:59:37;;;;;;;116.38;32.85;;;128.70;2252.80;;;;;;5114758;28;20027;-80
2022/02/17 02:02:03;;;;;;;;;;;128.60;2252.80;;;;;;5101189;28;20031;-78
2022/02/17 02:04:29;;;;;;;131.00;33.72;;;128.30;2252.80;;;;;;5114101;28;19982;-80
2022/02/17 02:06:55;;;;;;;;;;;128.30;2252.80;;;;;;5115927;28;20028;-81
2022/02/17 02:09:21;;;;;;;117.77;32.60;;;128.40;2252.80;;;;;;5114209;28;19911;-78
2022/02/17 02:11:47;;;;;;;;;;;128.30;2252.80;;;;;;5114568;28;20264;-81
2022/02/17 02:14:15;;;;;;;84.45;28.33;;;128.20;2252.80;;;;;;5114650;28;20396;-81
2022/02/17 02:16:42;;;;;;;73.28;28.23;;;128.30;2252.80;;;;;;5114332;28;20039;-80
2022/02/17 02:19:07;;;;;;;71.70;26.92;;;128.30;2252.80;;;;;;5114348;28;20057;-81
2022/02/17 02:21:33;;;;;;;;;;;128.30;2252.80;;;;;;5114678;28;20035;-81
2022/02/17 02:23:59;;;;;;;96.28;30.88;;;128.20;2252.80;;;;;;5114233;28;19908;-83
2022/02/17 02:26:27;;;;;;;;;;;128.10;2252.80;;;;;;5114662;28;20031;-81
2022/02/17 02:28:55;;;;;;;81.68;30.98;;;103.30;2227.20;;;;;;5114343;28;19939;-81
2022/02/17 02:31:21;;;;;;;111.20;30.70;;;128.00;2252.80;;;;;;5113910;28;20046;-81
2022/02/17 02:33:47;;;;;;;113.45;30.67;;;103.30;2227.20;;;;;;5114828;28;20012;-80
2022/02/17 02:36:13;;;;;;;;;;;103.30;2227.20;;;;;;5114686;28;20088;-80
2022/02/17 02:38:39;;;;;;;70.90;29.10;;;103.30;2227.20;;;;;;5113852;28;19904;-81
2022/02/17 02:41:05;;;;;;;106.05;30.88;;;128.00;2252.80;;;;;;5113893;28;20553;-81
2022/02/17 02:43:31;;;;;;;;;;;128.00;2252.80;;;;;;5114280;28;20020;-80
2022/02/17 02:45:57;;;;;;;82.88;29.70;;;128.00;2252.80;;;;;;5108129;28;19953;-80
2022/02/17 02:48:22;;;;;;;;;;;128.10;2252.80;;;;;;5114107;28;20019;-81
2022/02/17 02:50:48;;;;;;;89.05;27.83;;;128.10;2252.80;;;;;;5113581;28;19908;-81
2022/02/17 02:53:18;;;;;;;;;;;128.00;2252.80;;;;;;5115321;28;20045;-81
2022/02/17 02:55:46;;;;;;;69.55;26.23;;;128.30;2252.80;;;;;;5113648;28;19964;-81
2022/02/17 02:58:13;;;;;;;77.22;26.17;;;128.10;2252.80;;;;;;5111694;28;20067;-80
2022/02/17 03:00:40;;;;;;;72.90;25.42;;;128.00;2252.80;;;;;;5113031;28;20164;-77
2022/02/17 03:03:06;;;;;;;66.32;24.88;;;128.10;2252.80;;;;;;5113480;28;20020;-80
2022/02/17 03:05:32;;;;;;;72.32;24.33;;;128.10;2252.80;;;;;;5113409;28;20020;-77
2022/02/17 03:07:58;;;;;;;;;;;128.20;2252.80;;;;;;5113519;28;20028;-80
2022/02/17 03:10:24;;;;;;;93.65;24.95;;;128.30;2252.80;;;;;;5114533;28;19907;-83
2022/02/17 03:12:49;;;;;;;;;;;128.20;2252.80;;;;;;5114801;28;20075;-82
2022/02/17 03:15:15;;;;;;;74.65;24.45;;;128.10;2252.80;;;;;;5113086;28;20002;-79
2022/02/17 03:17:41;;;;;;;73.80;26.25;;;103.20;2227.20;;;;;;5113595;28;20015;-79
2022/02/17 03:20:08;;;;;;;;;;;103.10;2227.20;;;;;;5113624;28;20020;-80
2022/02/17 03:22:37;;;;;;;87.57;27.23;;;128.10;2252.80;;;;;;5113447;28;19912;-80
2022/02/17 03:25:04;;;;;;;88.80;29.80;;;103.10;2227.20;;;;;;5113065;28;20038;-79
2022/02/17 03:27:30;;;;;;;57.75;27.10;;;103.20;2227.20;;;;;;5113550;28;20024;-78
2022/02/17 03:29:56;;;;;;;;;;;128.00;2252.80;;;;;;5113227;28;20495;-79
2022/02/17 03:32:22;;;;;;;58.75;27.23;;;103.30;2227.20;;;;;;5112548;28;19904;-79
2022/02/17 03:34:47;;;;;;;;;;;103.30;2227.20;;;;;;5112900;28;20064;-78
2022/02/17 03:37:13;;;;;;;54.55;23.30;;;103.20;2227.20;;;;;;5112591;28;19923;-78
2022/02/17 03:39:38;;;;;;;;;;;128.00;2252.80;;;;;;5113397;28;20020;-79
2022/02/17 03:42:05;;;;;;;55.72;24.13;;;128.00;2252.80;;;;;;5113478;28;20475;-79
2022/02/17 03:44:31;;;;;;;52.10;25.52;;;128.00;2252.80;;;;;;5112270;28;20065;-78
2022/02/17 03:46:57;;;;;;;56.88;25.95;;;128.50;2252.80;;;;;;5096592;28;20373;-79
2022/02/17 03:49:23;;;;;;;;;;;128.20;2252.80;;;;;;5126204;27;20032;-79
2022/02/17 03:51:49;;;;;;;49.22;22.83;;;128.30;2252.80;;;;;;5097674;28;19949;-78
2022/02/17 03:54:15;;;;;;;75.47;26.48;;;128.50;2252.80;;;;;;5112307;28;20107;-79
2022/02/17 03:56:41;;;;;;;;;;;128.00;2252.80;;;;;;5113983;28;20123;-79
2022/02/17 03:59:08;;;;;;;69.05;23.63;;;128.00;2252.80;;;;;;5111754;28;19908;-78
2022/02/17 04:01:35;;;;;;;71.30;22.77;;;103.30;2227.20;;;;;;5109231;28;20039;-79
2022/02/17 04:04:03;;;;;;;54.45;23.33;;;103.20;2227.20;;;;;;5112060;28;20066;-79
2022/02/17 04:06:29;;;;;;;55.30;24.98;;;103.20;2227.20;;;;;;5113182;28;20019;-80
2022/02/17 04:08:55;;;;;;;;;;;103.30;2227.20;;;;;;5112804;28;20015;-81
2022/02/17 04:11:21;;;;;;;47.70;20.10;;;103.30;2227.20;;;;;;5112324;28;19903;-82
2022/02/17 04:13:49;;;;;;;60.53;23.05;;;103.30;2227.20;;;;;;5112108;28;20016;-81
2022/02/17 04:16:17;;;;;;;56.40;22.17;;;128.00;2252.80;;;;;;5109560;28;20058;-76
2022/02/17 04:18:47;;;;;;;55.25;21.38;;;128.20;2252.80;;;;;;5112600;28;20414;-81
2022/02/17 04:21:14;;;;;;;67.30;21.98;;;128.10;2252.80;;;;;;5112052;28;20024;-81
2022/02/17 04:23:44;;;;;;;61.90;20.38;;;103.30;2227.20;;;;;;5112098;28;20012;-79
2022/02/17 04:26:15;;;;;;;49.85;20.90;;;103.20;2227.20;;;;;;5112291;28;20051;-81
2022/02/17 04:28:42;;;;;;;59.72;20.50;;;103.10;2227.20;;;;;;5112461;28;20043;-81
2022/02/17 04:31:07;;;;;;;61.17;20.88;;;103.00;2227.20;;;;;;5113214;28;20035;-80
2022/02/17 04:33:33;;;;;;;;;;;102.90;2227.20;;;;;;5112181;28;20028;-80
2022/02/17 04:35:59;;;;;;;44.95;18.27;;;102.90;2227.20;;;;;;5112006;28;19912;-82
2022/02/17 04:38:25;;;;;;;;;;;102.90;2227.20;;;;;;5112431;28;20095;-81
2022/02/17 04:43:35;;;;;;;48.75;18.85;;;103.10;2227.20;;;;;;5110391;28;20076;-82
2022/02/17 04:46:01;;;;;;;;;;;103.30;2227.20;;;;;;5112191;28;20422;-82
2022/02/17 04:48:27;;;;;;;53.20;18.25;;;103.30;2227.20;;;;;;5112737;28;19904;-81
2022/02/17 04:50:53;;;;;;;;;;;103.10;2227.20;;;;;;5112141;28;20073;-82
2022/02/17 04:53:18;;;;;;;59.72;21.38;;;103.00;2227.20;;;;;;5111840;28;19911;-81
2022/02/17 04:55:44;;;;;;;;;;;103.00;2227.20;;;;;;5109562;28;20485;-81
2022/02/17 04:58:10;;;;;;;61.42;20.42;;;102.90;2227.20;;;;;;5109059;28;20010;-81
2022/02/17 05:00:35;;;;;;;;;;;102.90;2227.20;;;;;;5110742;28;20675;-81
2022/02/17 05:03:01;;;;;;;69.63;19.30;;;103.00;2227.20;;;;;;5113063;28;19904;-81
2022/02/17 05:05:27;;;;;;;;;;;103.20;2227.20;;;;;;5112165;28;20362;-82
2022/02/17 05:07:52;;;;;;;56.80;20.58;;;103.30;2227.20;;;;;;5112156;28;19972;-80
2022/02/17 05:10:18;;;;;;;;;;;128.10;2252.80;;;;;;5112140;28;20024;-81
2022/02/17 05:12:44;;;;;;;51.67;19.40;;;128.30;2252.80;;;;;;5112275;28;19910;-82
2022/02/17 05:15:10;;;;;;;;;;;128.00;2252.80;;;;;;5115014;28;20020;-82
2022/02/17 05:17:35;;;;;;;48.60;20.98;;;103.30;2227.20;;;;;;5115615;28;19907;-81
2022/02/17 05:20:01;;;;;;;;;;;103.30;2227.20;;;;;;5116169;28;20107;-81
2022/02/17 05:22:28;;;;;;;40.75;22.17;;;103.30;2227.20;;;;;;5115433;28;19994;-81
2022/02/17 05:24:54;;;;;;;47.60;21.73;;;103.30;2227.20;;;;;;5115489;28;20079;-80
2022/02/17 05:27:19;;;;;;;;;;;128.00;2252.80;;;;;;5116066;28;20027;-82
2022/02/17 05:29:45;;;;;;;41.78;21.67;;;128.10;2252.80;;;;;;5116523;28;20018;-78
2022/02/17 05:32:10;;;;;;;;;;;128.10;2252.80;;;;;;5115615;28;20035;-81
2022/02/17 05:34:36;;;;;;;37.67;21.05;;;128.40;2252.80;;;;;;5115435;28;19904;-81
2022/02/17 05:37:02;;;;;;;;;;;128.40;2252.80;;;;;;5115474;28;20034;-80
2022/02/17 05:39:28;;;;;;;42.45;20.70;;;128.40;2252.80;;;;;;5105726;28;19904;-81
2022/02/17 05:41:54;;;;;;;;;;;128.30;2252.80;;;;;;5110206;28;20168;-81
2022/02/17 05:44:19;;;;;;;44.85;22.83;;;128.20;2252.80;;;;;;5112436;28;19911;-77
2022/02/17 05:46:45;;;;;;;;;;;103.30;2227.20;;;;;;5116851;28;20052;-81
2022/02/17 05:49:11;;;;;;;45.13;22.13;;;128.00;2252.80;;;;;;5114544;28;20277;-77
2022/02/17 05:51:37;;;;;;;;;;;103.30;2227.20;;;;;;5115192;28;20024;-80
2022/02/17 05:54:02;;;;;;;47.85;22.77;;;103.30;2227.20;;;;;;5114556;28;19996;-81
2022/02/17 05:56:28;;;;;;;;;;;103.30;2227.20;;;;;;5115354;28;20572;-81
2022/02/17 05:58:54;;;;;;;53.08;24.50;;;103.20;2227.20;;;;;;5115719;28;19935;-80
2022/02/17 06:01:19;;;;;;;;;;;103.20;2227.20;;;;;;5116413;28;20094;-80
2022/02/17 06:03:45;;;;;;;42.70;23.48;;;103.30;2227.20;;;;;;5114684;28;19907;-80
2022/02/17 06:06:11;;;;;;;;;;;128.00;2252.80;;;;;;5114768;28;20016;-80
2022/02/17 06:08:36;;;;;;;52.67;27.15;;;128.10;2252.80;;;;;;5111693;28;19903;-81
2022/02/17 06:11:02;;;;;;;;;;;128.00;2252.80;;;;;;5108086;28;20024;-81
2022/02/17 06:13:28;;;;;;;53.38;26.58;;;103.30;2227.20;;;;;;5106943;28;19904;-79
2022/02/17 06:15:53;;;;;;;;;;;128.00;2252.80;;;;;;5114396;28;20062;-81
2022/02/17 06:18:19;;;;;;;48.47;25.38;;;128.10;2252.80;;;;;;5114214;28;19904;-77
2022/02/17 06:20:45;;;;;;;;;;;103.30;2227.20;;;;;;5114624;28;20092;-81
2022/02/17 06:23:10;;;;;;;50.80;25.92;;;128.00;2252.80;;;;;;5114462;28;19970;-82
2022/02/17 06:25:36;;;;;;;;;;;128.00;2252.80;;;;;;5114712;28;20047;-81
2022/02/17 06:28:03;;;;;;;53.60;26.40;;;128.00;2252.80;;;;;;5115380;28;19964;-81
2022/02/17 06:30:29;;;;;;;50.35;25.77;;;128.10;2252.80;;;;;;5114241;28;20020;-82
2022/02/17 06:32:56;;;;;;;;;;;128.30;2252.80;;;;;;5114176;28;20063;-82
2022/02/17 06:35:25;;;;;;;52.47;26.33;;;128.60;2252.80;;;;;;5113844;28;19907;-83
2022/02/17 06:37:51;;;;;;;47.63;25.80;;;128.70;2252.80;;;;;;5114368;27;20035;-76
2022/02/17 06:40:18;;;;;;;52.85;25.40;;;128.90;2252.80;;;;;;5113726;28;20028;-81
2022/02/17 06:42:44;;;;;;;43.30;24.27;;;128.90;2252.80;;;;;;5113955;28;20027;-79
2022/02/17 06:45:11;;;;;;;46.50;25.98;;;153.80;2252.80;;;;;;5113637;28;20072;-83
2022/02/17 06:47:37;;;;;;;53.30;26.83;;;153.90;2252.80;;;;;;5113684;28;20027;-84
2022/02/17 06:50:04;;;;;;;;;;;153.70;2252.80;;;;;;5114254;28;20389;-83
2022/02/17 06:52:29;;;;;;;45.80;25.75;;;153.70;2252.80;;;;;;5113517;28;19960;-83
2022/02/17 06:54:55;;;;;;;;;;;153.60;2252.80;;;;;;5115160;28;20389;-80
2022/02/17 06:57:22;;;;;;;50.20;27.25;;;153.60;2252.80;;;;;;5114500;28;19916;-81
2022/02/17 06:59:49;;;;;;;52.88;27.98;;;153.60;2252.80;;;;;;5109507;28;20019;-80
2022/02/17 07:02:21;;;;;;;47.38;26.70;;;153.60;2252.80;;;;;;5114771;28;20047;-80
2022/02/17 07:04:46;;;;;;;46.72;26.27;;;154.10;2252.80;;;;;;5113416;28;20489;-81
2022/02/17 07:07:12;;;;;;;;;;;154.30;2252.80;;;;;;5114514;28;20058;-86
2022/02/17 07:09:37;;;;;;;43.55;24.52;;;154.40;2252.80;;;;;;5113345;28;19952;-81
2022/02/17 07:12:03;;;;;;;;;;;154.10;2252.80;;;;;;5114209;27;20035;-80
2022/02/17 07:14:29;;;;;;;39.70;23.23;;;153.80;2252.80;;;;;;5113994;28;19964;-79
2022/02/17 07:16:57;;;;;;;;;;;154.10;2252.80;;;;;;5114109;28;20036;-81
2022/02/17 07:19:23;;;;;;;38.45;23.98;;;154.30;2252.80;;;;;;5113109;28;19916;-80
2022/02/17 07:21:50;;;;;;;37.10;21.63;;;154.50;2252.80;;;;;;5113141;28;20027;-80
2022/02/17 07:24:26;;;;;;;39.58;22.73;;;154.50;2252.80;;;;;;5112704;28;20079;-83
2022/02/17 07:26:52;;;;;;;34.73;18.20;;;154.50;2252.80;;;;;;5114355;27;20035;-79
2022/02/17 07:29:18;;;;;;;;;;;179.20;2252.80;;;;;;5113587;27;20358;-83
2022/02/17 07:31:44;;;;;;;38.13;21.25;;;154.50;2252.80;;;;;;5112594;28;19911;-80
2022/02/17 07:34:10;;;;;;;48.33;27.10;;;154.50;2252.80;;;;;;5112764;28;20330;-81
2022/02/17 07:36:36;;;;;;;57.55;32.42;;;154.20;2252.80;;;;;;5111583;28;20028;-84
2022/02/17 07:39:03;;;;;;;;;;;153.90;2252.80;;;;;;5113016;28;20015;-78
2022/02/17 07:41:30;;;;;;;37.58;21.08;;;153.90;2252.80;;;;;;5112608;28;19952;-79
2022/02/17 07:43:56;;;;;;;42.22;23.98;;;154.10;2252.80;;;;;;5113295;27;20023;-80
2022/02/17 07:46:22;;;;;;;;;;;153.90;2252.80;;;;;;5110256;28;20023;-83
2022/02/17 07:48:50;;;;;;;41.97;22.13;;;153.80;2252.80;;;;;;5112531;28;19941;-80
2022/02/17 07:51:17;;;;;;;40.40;23.55;;;154.10;2252.80;;;;;;5113464;28;20026;-80
2022/02/17 07:53:43;;;;;;;43.65;24.20;;;153.80;2252.80;;;;;;5113844;28;20115;-84
2022/02/17 07:56:09;;;;;;;41.90;24.95;;;153.90;2252.80;;;;;;5112686;28;20039;-77
2022/02/17 07:58:35;;;;;;;;;;;154.00;2252.80;;;;;;5112885;28;20020;-84
2022/02/17 08:01:01;;;;;;;42.67;24.20;;;154.10;2252.80;;;;;;5113971;28;19948;-83
2022/02/17 08:03:27;;;;;;;41.58;25.75;;;154.10;2252.80;;;;;;5112501;28;20016;-79
2022/02/17 08:05:53;;;;;;;;;;;154.20;2252.80;;;;;;5112950;28;20024;-79
2022/02/17 08:08:19;;;;;;;42.58;26.13;;;154.20;2252.80;;;;;;5112091;28;20422;-78
2022/02/17 08:10:45;;;;;;;;;;;154.50;2252.80;;;;;;5113083;28;20067;-80
2022/02/17 08:13:11;;;;;;;43.20;24.63;;;179.20;2252.80;;;;;;5113494;28;19905;-79
2022/02/17 08:15:37;;;;;;;42.50;24.50;;;154.50;2252.80;;;;;;5112432;28;20114;-82
2022/02/17 08:18:03;;;;;;;;;;;154.50;2252.80;;;;;;5113717;28;20050;-80
2022/02/17 08:20:29;;;;;;;51.08;26.35;;;154.50;2252.80;;;;;;5111982;28;19903;-79
2022/02/17 08:22:56;;;;;;;;;;;179.20;2252.80;;;;;;5112670;28;20022;-80
2022/02/17 08:25:22;;;;;;;33.13;20.15;;;154.50;2252.80;;;;;;5113493;28;19960;-81
2022/02/17 08:27:49;;;;;;;44.45;24.90;;;154.50;2252.80;;;;;;5113679;28;20031;-81
2022/02/17 08:30:15;;;;;;;41.63;26.08;;;154.50;2252.80;;;;;;5112308;28;20366;-79
2022/02/17 08:32:41;;;;;;;48.17;27.58;;;179.20;2252.80;;;;;;5112280;28;20479;-81
2022/02/17 08:35:10;;;;;;;43.08;25.45;;;179.40;2252.80;;;;;;5113163;28;20032;-82
2022/02/17 08:37:40;;;;;;;38.78;23.00;;;179.50;2252.80;;;;;;5113303;28;20085;-81
2022/02/17 08:40:08;;;;;;;38.45;22.08;;;179.80;2252.80;;;;;;5112191;28;20024;-79
2022/02/17 08:42:34;;;;;;;39.67;23.52;;;180.00;2252.80;;;;;;5112292;28;20039;-80
2022/02/17 08:45:00;;;;;;;40.05;22.23;;;180.10;2252.80;;;;;;5113626;28;20454;-77
2022/02/17 08:47:26;;;;;;;;;;;180.10;2252.80;;;;;;5112260;28;20031;-78
2022/02/17 08:49:52;;;;;;;39.53;23.50;;;204.90;2252.80;;;;;;5117869;28;19903;-86
2022/02/17 08:52:19;;;;;;;;;;;205.20;2252.80;;;;;;5116692;28;20068;-80
2022/02/17 08:54:45;;;;;;;;;;;204.80;2252.80;;;;;;5115982;28;19907;-84
2022/02/17 08:57:11;;;;;;;37.47;21.90;;;204.80;2252.80;;;;;;5115841;28;19923;-82
2022/02/17 08:59:36;;;;;;;;;;;180.10;2252.80;;;;;;5117405;28;20015;-77
2022/02/17 09:02:02;;;;;;;39.20;22.88;;;204.80;2252.80;;;;;;5117465;28;19910;-84
2022/02/17 09:04:30;;;;;;;;;;;205.00;2252.80;;;;;;5116687;27;20092;-84
2022/02/17 09:06:56;;;;;;;32.80;20.95;;;204.80;2252.80;;;;;;5116193;27;19912;-79
2022/02/17 09:09:22;;;;;;;;;;;204.90;2252.80;;;;;;5117618;28;20127;-83
2022/02/17 09:11:47;;;;;;;37.88;21.83;;;204.90;2252.80;;;;;;5117236;28;19908;-86
2022/02/17 09:14:13;;;;;;;;;;;205.10;2252.80;;;;;;5116112;28;20051;-85
2022/02/17 09:16:39;;;;;;;40.80;23.45;;;205.20;2252.80;;;;;;5115907;27;20426;-83
2022/02/17 09:19:05;;;;;;;;;;;205.10;2252.80;;;;;;5117915;28;20031;-84
2022/02/17 09:21:31;;;;;;;41.38;21.98;;;205.20;2252.80;;;;;;5117112;28;20371;-84
2022/02/17 09:23:57;;;;;;;37.70;22.58;;;205.20;2252.80;;;;;;5115099;28;20476;-82
2022/02/17 09:26:23;;;;;;;;;;;205.30;2252.80;;;;;;5116053;28;20032;-83
2022/02/17 09:28:49;;;;;;;32.97;19.48;;;205.50;2252.80;;;;;;5115407;28;20421;-83
2022/02/17 09:31:23;;;;;;;30.90;19.83;;;205.50;2252.80;;;;;;5116199;28;20096;-85
2022/02/17 09:33:55;;;;;;;37.88;20.77;;;205.60;2252.80;;;;;;5115821;27;20035;-86
2022/02/17 09:36:28;;;;;;;35.85;18.98;;;205.60;2252.80;;;;;;5116280;28;20059;-85
2022/02/17 09:38:55;;;;;;;29.20;20.10;;;205.50;2252.80;;;;;;5108974;27;20031;-83
2022/02/17 09:41:21;;;;;;;37.05;19.58;;;205.50;2252.80;;;;;;5139652;27;20015;-86
2022/02/17 09:43:50;;;;;;;30.65;18.52;;;205.40;2252.80;;;;;;5114470;28;20024;-84
2022/02/17 09:46:21;;;;;;;28.20;17.00;;;205.60;2252.80;;;;;;5115415;27;20076;-86
2022/02/17 09:49:00;;;;;;;37.78;18.67;;;205.70;2252.80;;;;;;5115036;28;20023;-80
2022/02/17 09:51:28;;;;;;;29.73;16.58;;;205.70;2252.80;;;;;;5115137;28;20526;-82
2022/02/17 09:53:54;;;;;;;30.25;16.80;;;230.40;2252.80;;;;;;5114533;28;20030;-83
2022/02/17 09:56:24;;;;;;;31.00;19.05;;;205.60;2252.80;;;;;;5114518;28;20119;-83
2022/02/17 09:58:54;;;;;;;32.28;17.77;;;230.50;2252.80;;;;;;5114727;28;20023;-81
2022/02/17 10:01:26;;;;;;;30.45;18.38;;;230.50;2252.80;;;;;;5114014;28;20481;-79
2022/02/17 10:04:12;;;;;;;27.50;17.48;;;230.60;2252.80;;;;;;5115070;27;20040;-82
2022/02/17 10:06:48;;;;;;;30.83;18.52;;;230.70;2252.80;;;;;;5139573;27;20034;-80
2022/02/17 10:09:15;;;;;;;23.73;14.75;;;230.80;2252.80;;;;;;5115852;28;20031;-83
2022/02/17 10:11:43;;;;;;;26.42;16.95;;;230.90;2252.80;;;;;;5116162;28;20020;-83
2022/02/17 10:14:16;;;;;;;30.20;16.58;;;231.00;2252.80;;;;;;5115792;27;20023;-85
2022/02/17 10:16:54;;;;;;;30.20;17.25;;;231.00;2252.80;;;;;;5110377;28;20331;-84
2022/02/17 10:19:21;;;;;;;25.17;16.48;;;231.10;2252.80;;;;;;5115950;28;20493;-84
2022/02/17 10:21:47;;;;;;;26.05;16.70;;;231.20;2252.80;;;;;;5115786;28;20019;-81
2022/02/17 10:24:53;;;;;;;27.00;16.73;;;231.30;2252.80;;;;;;5114768;27;20050;-81
2022/02/17 10:27:22;;;;;;;28.55;15.77;;;256.00;2252.80;;;;;;5056541;28;20043;-85
2022/02/17 10:30:10;;;;;;;26.63;16.17;;;256.20;2252.80;;;;;;5056107;28;20029;-83
2022/02/17 10:32:50;;;;;;;20.83;13.55;;;256.30;2252.80;;;;;;5056000;28;20036;-85
2022/02/17 10:35:16;;;;;;;28.58;15.95;;;256.50;2252.80;;;;;;5056281;28;20054;-85
2022/02/17 10:37:50;;;;;;;25.33;15.57;;;256.50;2252.80;;;;;;5055274;28;20044;-85
2022/02/17 10:40:20;;;;;;;30.38;17.15;;;256.80;2252.80;;;;;;5054901;28;20025;-83
2022/02/17 10:43:07;;;;;;;27.38;15.20;;;256.90;2252.80;;;;;;5053789;28;20521;-85
2022/02/17 10:45:33;;;;;;;26.17;15.80;;;256.90;2252.80;;;;;;5016475;28;20046;-84
2022/02/17 10:48:23;;;;;;;24.80;16.90;;;281.80;2278.40;;;;;;5016427;28;20029;-84
2022/02/17 10:51:05;;;;;;;30.83;15.35;;;281.80;2278.40;;;;;;5016625;28;20034;-81
2022/02/17 10:53:36;;;;;;;27.27;15.23;;;281.90;2278.40;;;;;;5015888;28;20177;-76
2022/02/17 10:56:05;;;;;;;24.52;15.30;;;282.00;2278.40;;;;;;5004809;28;20092;-89
2022/02/17 11:02:17;;;;;;;29.83;17.00;;;281.90;2278.40;;;;;;4985860;23;20501;-74
2022/02/17 11:04:42;;;;;;;23.35;15.52;;;282.00;2278.40;;;;;;5042821;28;20026;-76
2022/02/17 11:07:09;;;;;;;29.58;16.20;;;282.20;2278.40;;;;;;5041590;28;20099;-75
2022/02/17 11:09:35;;;;;;;26.83;14.30;;;282.40;2278.40;;;;;;5043722;28;20025;-78
2022/02/17 11:12:01;;;;;;;26.73;15.10;;;282.50;2278.40;;;;;;5033127;28;20075;-75
2022/02/17 11:14:45;;;;;;;28.13;15.40;;;307.20;2304.00;;;;;;5031952;28;20026;-75
2022/02/17 11:17:13;;;;;;;35.60;17.17;;;307.30;2304.00;;;;;;5032770;28;20037;-76
2022/02/17 11:19:40;;;;;;;28.40;15.88;;;307.70;2304.00;;;;;;5033135;28;20018;-75
2022/02/17 11:22:06;;;;;;;27.88;15.75;;;307.90;2304.00;;;;;;5032539;28;20029;-76
2022/02/17 11:24:50;;;;;;;23.95;15.05;;;333.00;2329.60;;;;;;5032825;28;20025;-76
2022/02/17 11:27:17;;;;;;;36.35;20.90;;;333.40;2329.60;;;;;;5032984;28;20024;-75
2022/02/17 11:29:44;;;;;;;29.23;17.30;;;333.60;2329.60;;;;;;5032796;28;20059;-75
2022/02/17 11:32:22;;;;;;;31.63;20.00;;;333.40;2329.60;;;;;;5031522;28;20494;-75
2022/02/17 11:34:55;;;;;;;21.20;13.90;;;333.30;2329.60;;;;;;5031680;28;20433;-75
2022/02/17 11:37:29;;;;;;;27.23;14.75;;;333.50;2329.60;;;;;;5031314;28;20075;-75
2022/02/17 11:40:03;;;;;;;32.30;18.73;;;333.70;2329.60;;;;;;5032666;28;20049;-75
2022/02/17 11:42:31;;;;;;;28.83;17.35;;;333.50;2329.60;;;;;;5032896;28;20036;-76
2022/02/17 11:45:23;;;;;;;28.85;17.88;;;333.60;2329.60;;;;;;5032333;28;20049;-75
2022/02/17 11:48:05;;;;;;;26.67;17.10;;;333.60;2329.60;;;;;;5031513;28;20037;-75
2022/02/17 11:50:43;;;;;;;26.90;16.23;;;358.50;2329.60;;;;;;5033619;28;20032;-82
2022/02/17 11:53:28;;;;;;;24.00;14.73;;;358.50;2329.60;;;;;;5034507;28;20539;-85
2022/02/17 11:56:22;;;;;;;25.63;15.45;;;358.40;2329.60;;;;;;5025948;28;20505;-86
2022/02/17 11:58:52;;;;;;;23.17;14.02;;;358.60;2329.60;;;;;;5053535;28;20084;-84
2022/02/17 12:01:33;;;;;;;22.48;13.85;;;359.00;2278.40;;;;;;5041648;28;20116;-83
2022/02/17 12:04:09;;;;;;;18.27;11.85;;;359.10;2278.40;;;;;;5032882;28;20036;-76
2022/02/17 12:06:38;;;;;;;;;;;359.00;2329.60;;;;;;5032071;28;20075;-84
2022/02/17 12:09:06;;;;;;;19.92;12.63;;;384.00;2201.60;;;;;;5031352;28;19970;-76
2022/02/17 12:11:36;;;;;;;23.63;13.57;;;384.20;2150.40;;;;;;5037865;28;20112;-80
2022/02/17 12:14:07;;;;;;;26.48;14.18;;;384.50;2073.60;;;;;;5042249;28;20025;-80
2022/02/17 12:16:40;;;;;;;28.85;15.00;;;384.50;2099.20;;;;;;5040820;28;20500;-76
2022/02/17 12:19:14;;;;;;;21.33;13.18;;;384.50;2124.80;;;;;;5042852;28;20017;-75
2022/02/17 12:21:41;;;;;;;32.90;15.93;;;384.70;2048.00;;;;;;5043250;28;20024;-76
2022/02/17 12:24:09;;;;;;;29.63;16.23;;;384.90;2073.60;;;;;;5037550;28;20036;-75
2022/02/17 12:26:39;;;;;;;23.13;13.57;;;384.90;2073.60;;;;;;5041615;28;20048;-75
2022/02/17 12:29:26;;;;;;;21.15;12.07;;;409.70;2022.40;;;;;;5040562;28;20070;-78
2022/02/17 12:31:54;;;;;;;20.08;10.48;;;409.70;1996.80;;;;;;5030943;28;20040;-77